This is the latest recevied weather packets stored in our database for station/object DL9GJ-6. If no packets are shown the sender has not sent any weather packets the latest 10 day(s).
| Time | Temp. | Humidity | Pressure | Rain* | Wind** | Luminosity | Snow |
|---|---|---|---|---|---|---|---|
| 1777980381 | 17.78° C | 70% | 1006.7 hPa | 0 mm | - | 289 W/m² | - |
| 1777980369 | 17.78° C | 70% | 1006.7 hPa | 0 mm | - | 289 W/m² | - |
| 1777980021 | 17.78° C | 68% | 1006.6 hPa | 0 mm | - | 245 W/m² | - |
| 1777979661 | 17.22° C | 67% | 1006.5 hPa | 0 mm | - | 212 W/m² | - |
| 1777979651 | 17.22° C | 67% | 1006.5 hPa | 0 mm | - | 212 W/m² | - |
| 1777979301 | 17.22° C | 67% | 1006.3 hPa | 0 mm | - | 186 W/m² | - |
| 1777979289 | 17.22° C | 67% | 1006.3 hPa | 0 mm | - | 186 W/m² | - |
| 1777978942 | 17.78° C | 66% | 1006.4 hPa | 0 mm | - | 178 W/m² | - |
| 1777978928 | 17.78° C | 66% | 1006.4 hPa | 0 mm | - | 178 W/m² | - |
| 1777978581 | 17.78° C | 68% | 1006.4 hPa | 0 mm | - | 189 W/m² | - |
| 1777978569 | 17.78° C | 68% | 1006.4 hPa | 0 mm | - | 189 W/m² | - |
| 1777978221 | 17.78° C | 71% | 1006.4 hPa | 0 mm | - | 223 W/m² | - |
| 1777978210 | 17.78° C | 71% | 1006.4 hPa | 0 mm | - | 223 W/m² | - |
| 1777977862 | 17.78° C | 72% | 1006.5 hPa | 0 mm | - | 249 W/m² | - |
| 1777977501 | 17.22° C | 72% | 1006.6 hPa | 0 mm | - | 239 W/m² | - |
| 1777977142 | 17.22° C | 74% | 1006.6 hPa | 0 mm | - | 219 W/m² | - |
| 1777976781 | 17.22° C | 73% | 1006.7 hPa | 0 mm | - | 213 W/m² | - |
| 1777976422 | 17.22° C | 71% | 1006.7 hPa | 0 mm | - | 215 W/m² | - |
| 1777976410 | 17.22° C | 71% | 1006.7 hPa | 0 mm | - | 215 W/m² | - |
| 1777976061 | 17.78° C | 73% | 1006.7 hPa | 0 mm | - | 242 W/m² | - |
| 1777975701 | 17.78° C | 74% | 1006.8 hPa | 0 mm | - | 261 W/m² | - |
| 1777975341 | 17.78° C | 73% | 1006.8 hPa | 0 mm | - | 279 W/m² | - |
| 1777975329 | 17.78° C | 73% | 1006.8 hPa | 0 mm | - | 279 W/m² | - |
| 1777974981 | 17.78° C | 74% | 1006.8 hPa | 0 mm | - | 293 W/m² | - |
| 1777974621 | 17.22° C | 74% | 1006.8 hPa | 0 mm | - | 310 W/m² | - |
* Rain latest hour (hover to see other rain measurements)
** Current wind speed in m/s (hover to see current wind gust speed)